sensor_id;sensor_type;location;lat;lon;timestamp;P1;P2;P0
70243;PMS7003;57634;51.136;17.024;2023-05-29T00:02:20;2;2;2
70243;PMS7003;57634;51.136;17.024;2023-05-29T00:05:48;3;3;2
70243;PMS7003;57634;51.136;17.024;2023-05-29T00:08:49;3;2;1
70243;PMS7003;57634;51.136;17.024;2023-05-29T00:11:52;3;3;2
70243;PMS7003;57634;51.136;17.024;2023-05-29T00:14:53;2;2;2
70243;PMS7003;57634;51.136;17.024;2023-05-29T00:17:55;1;1;1
70243;PMS7003;57634;51.136;17.024;2023-05-29T00:20:57;2;2;2
70243;PMS7003;57634;51.136;17.024;2023-05-29T00:23:58;5;5;3
70243;PMS7003;57634;51.136;17.024;2023-05-29T00:27:00;3;3;2
70243;PMS7003;57634;51.136;17.024;2023-05-29T00:30:02;3;2;2
70243;PMS7003;57634;51.136;17.024;2023-05-29T00:33:06;4;3;2
70243;PMS7003;57634;51.136;17.024;2023-05-29T00:36:09;2;2;2
70243;PMS7003;57634;51.136;17.024;2023-05-29T00:39:11;3;2;1
70243;PMS7003;57634;51.136;17.024;2023-05-29T00:42:14;4;3;3
70243;PMS7003;57634;51.136;17.024;2023-05-29T00:45:41;3;3;2
70243;PMS7003;57634;51.136;17.024;2023-05-29T00:48:42;3;3;2
70243;PMS7003;57634;51.136;17.024;2023-05-29T00:51:47;3;3;2
70243;PMS7003;57634;51.136;17.024;2023-05-29T00:54:52;4;2;2
70243;PMS7003;57634;51.136;17.024;2023-05-29T00:57:56;2;2;2
70243;PMS7003;57634;51.136;17.024;2023-05-29T01:00:57;6;4;3
70243;PMS7003;57634;51.136;17.024;2023-05-29T01:03:59;3;3;2
70243;PMS7003;57634;51.136;17.024;2023-05-29T01:07:01;4;3;2
70243;PMS7003;57634;51.136;17.024;2023-05-29T01:10:05;4;4;3
70243;PMS7003;57634;51.136;17.024;2023-05-29T01:13:11;4;3;3
70243;PMS7003;57634;51.136;17.024;2023-05-29T01:16:51;4;3;2
70243;PMS7003;57634;51.136;17.024;2023-05-29T01:20:00;4;4;3
70243;PMS7003;57634;51.136;17.024;2023-05-29T01:30:03;4;4;2
70243;PMS7003;57634;51.136;17.024;2023-05-29T01:33:06;3;3;2
70243;PMS7003;57634;51.136;17.024;2023-05-29T01:36:08;3;3;3
70243;PMS7003;57634;51.136;17.024;2023-05-29T01:39:11;5;5;3
70243;PMS7003;57634;51.136;17.024;2023-05-29T01:42:14;5;3;2
70243;PMS7003;57634;51.136;17.024;2023-05-29T01:45:16;3;3;2
70243;PMS7003;57634;51.136;17.024;2023-05-29T01:48:18;5;4;3
70243;PMS7003;57634;51.136;17.024;2023-05-29T01:51:20;5;4;3
70243;PMS7003;57634;51.136;17.024;2023-05-29T01:54:25;5;3;3
70243;PMS7003;57634;51.136;17.024;2023-05-29T01:57:27;3;3;3
70243;PMS7003;57634;51.136;17.024;2023-05-29T02:00:30;3;3;2
70243;PMS7003;57634;51.136;17.024;2023-05-29T02:03:31;3;3;2
70243;PMS7003;57634;51.136;17.024;2023-05-29T02:06:59;3;2;1
70243;PMS7003;57634;51.136;17.024;2023-05-29T02:10:01;4;3;3
70243;PMS7003;57634;51.136;17.024;2023-05-29T02:13:04;3;3;3
70243;PMS7003;57634;51.136;17.024;2023-05-29T02:16:05;3;3;2
70243;PMS7003;57634;51.136;17.024;2023-05-29T02:19:07;3;3;2
70243;PMS7003;57634;51.136;17.024;2023-05-29T02:22:08;4;3;2
70243;PMS7003;57634;51.136;17.024;2023-05-29T02:25:10;4;4;3
70243;PMS7003;57634;51.136;17.024;2023-05-29T02:28:11;4;4;3
70243;PMS7003;57634;51.136;17.024;2023-05-29T02:31:12;5;4;2
70243;PMS7003;57634;51.136;17.024;2023-05-29T02:34:14;5;5;4
70243;PMS7003;57634;51.136;17.024;2023-05-29T02:37:15;5;4;3
70243;PMS7003;57634;51.136;17.024;2023-05-29T02:40:17;5;3;2
70243;PMS7003;57634;51.136;17.024;2023-05-29T02:43:21;4;4;3
70243;PMS7003;57634;51.136;17.024;2023-05-29T02:46:50;4;4;3
70243;PMS7003;57634;51.136;17.024;2023-05-29T02:49:52;4;3;3
70243;PMS7003;57634;51.136;17.024;2023-05-29T02:52:53;5;4;3
70243;PMS7003;57634;51.136;17.024;2023-05-29T02:55:55;4;4;3
70243;PMS7003;57634;51.136;17.024;2023-05-29T02:58:56;5;4;3
70243;PMS7003;57634;51.136;17.024;2023-05-29T03:01:57;6;6;3
70243;PMS7003;57634;51.136;17.024;2023-05-29T03:04:59;5;5;4
70243;PMS7003;57634;51.136;17.024;2023-05-29T03:08:01;4;2;1
70243;PMS7003;57634;51.136;17.024;2023-05-29T03:11:03;3;2;1
70243;PMS7003;57634;51.136;17.024;2023-05-29T03:14:04;6;3;2
70243;PMS7003;57634;51.136;17.024;2023-05-29T03:17:06;3;3;2
70243;PMS7003;57634;51.136;17.024;2023-05-29T03:20:09;3;3;2
70243;PMS7003;57634;51.136;17.024;2023-05-29T03:23:11;5;3;2
70243;PMS7003;57634;51.136;17.024;2023-05-29T03:26:12;5;4;3
70243;PMS7003;57634;51.136;17.024;2023-05-29T03:29:40;6;4;2
70243;PMS7003;57634;51.136;17.024;2023-05-29T03:32:42;5;4;2
70243;PMS7003;57634;51.136;17.024;2023-05-29T03:35:43;4;3;2
70243;PMS7003;57634;51.136;17.024;2023-05-29T03:38:44;4;4;2
70243;PMS7003;57634;51.136;17.024;2023-05-29T03:41:48;4;4;3
70243;PMS7003;57634;51.136;17.024;2023-05-29T03:44:50;5;4;3
70243;PMS7003;57634;51.136;17.024;2023-05-29T03:47:51;4;4;3
70243;PMS7003;57634;51.136;17.024;2023-05-29T03:50:53;4;4;2
70243;PMS7003;57634;51.136;17.024;2023-05-29T03:53:54;5;5;3
70243;PMS7003;57634;51.136;17.024;2023-05-29T03:56:56;4;3;3
70243;PMS7003;57634;51.136;17.024;2023-05-29T03:59:58;2;1;0
70243;PMS7003;57634;51.136;17.024;2023-05-29T04:02:59;4;4;2
70243;PMS7003;57634;51.136;17.024;2023-05-29T04:06:03;5;4;3
70243;PMS7003;57634;51.136;17.024;2023-05-29T04:09:32;5;5;3
70243;PMS7003;57634;51.136;17.024;2023-05-29T04:12:33;8;6;4
70243;PMS7003;57634;51.136;17.024;2023-05-29T04:15:35;5;4;3
70243;PMS7003;57634;51.136;17.024;2023-05-29T04:18:37;5;5;3
70243;PMS7003;57634;51.136;17.024;2023-05-29T04:21:38;6;5;4
70243;PMS7003;57634;51.136;17.024;2023-05-29T04:24:40;5;5;3
70243;PMS7003;57634;51.136;17.024;2023-05-29T04:27:42;4;4;3
70243;PMS7003;57634;51.136;17.024;2023-05-29T04:30:43;4;4;3
70243;PMS7003;57634;51.136;17.024;2023-05-29T04:33:45;5;4;2
70243;PMS7003;57634;51.136;17.024;2023-05-29T04:36:47;3;3;2
70243;PMS7003;57634;51.136;17.024;2023-05-29T04:39:48;3;3;2
70243;PMS7003;57634;51.136;17.024;2023-05-29T04:42:52;3;3;2
70243;PMS7003;57634;51.136;17.024;2023-05-29T04:45:53;3;3;1
70243;PMS7003;57634;51.136;17.024;2023-05-29T04:48:54;3;2;1
70243;PMS7003;57634;51.136;17.024;2023-05-29T04:52:22;3;3;1
70243;PMS7003;57634;51.136;17.024;2023-05-29T04:55:24;1;1;1
70243;PMS7003;57634;51.136;17.024;2023-05-29T04:58:26;2;2;2
70243;PMS7003;57634;51.136;17.024;2023-05-29T05:01:28;3;2;1
70243;PMS7003;57634;51.136;17.024;2023-05-29T05:04:29;2;2;1
70243;PMS7003;57634;51.136;17.024;2023-05-29T05:07:30;2;2;1
70243;PMS7003;57634;51.136;17.024;2023-05-29T05:10:32;2;2;1
70243;PMS7003;57634;51.136;17.024;2023-05-29T05:13:33;2;2;1
70243;PMS7003;57634;51.136;17.024;2023-05-29T05:16:34;1;1;0
70243;PMS7003;57634;51.136;17.024;2023-05-29T05:19:36;1;1;1
70243;PMS7003;57634;51.136;17.024;2023-05-29T05:22:37;3;0;0
70243;PMS7003;57634;51.136;17.024;2023-05-29T05:25:39;0;0;0
70243;PMS7003;57634;51.136;17.024;2023-05-29T05:28:41;0;0;0
70243;PMS7003;57634;51.136;17.024;2023-05-29T05:31:43;0;0;0
70243;PMS7003;57634;51.136;17.024;2023-05-29T05:35:10;0;0;0
70243;PMS7003;57634;51.136;17.024;2023-05-29T05:38:12;0;0;0
70243;PMS7003;57634;51.136;17.024;2023-05-29T05:41:13;0;0;0
70243;PMS7003;57634;51.136;17.024;2023-05-29T05:44:15;0;0;0
70243;PMS7003;57634;51.136;17.024;2023-05-29T05:47:16;0;0;0
70243;PMS7003;57634;51.136;17.024;2023-05-29T05:50:18;0;0;0
70243;PMS7003;57634;51.136;17.024;2023-05-29T05:53:19;0;0;0
70243;PMS7003;57634;51.136;17.024;2023-05-29T05:56:22;0;0;0
70243;PMS7003;57634;51.136;17.024;2023-05-29T05:59:23;0;0;0
70243;PMS7003;57634;51.136;17.024;2023-05-29T06:02:24;1;1;0
70243;PMS7003;57634;51.136;17.024;2023-05-29T06:05:27;0;0;0
70243;PMS7003;57634;51.136;17.024;2023-05-29T06:08:28;1;0;0
70243;PMS7003;57634;51.136;17.024;2023-05-29T06:11:31;1;1;0
70243;PMS7003;57634;51.136;17.024;2023-05-29T06:15:00;0;0;0
70243;PMS7003;57634;51.136;17.024;2023-05-29T06:18:04;0;0;0
70243;PMS7003;57634;51.136;17.024;2023-05-29T06:21:06;0;0;0
70243;PMS7003;57634;51.136;17.024;2023-05-29T06:24:10;2;1;0
70243;PMS7003;57634;51.136;17.024;2023-05-29T06:27:12;0;0;0
70243;PMS7003;57634;51.136;17.024;2023-05-29T06:30:14;1;1;0
70243;PMS7003;57634;51.136;17.024;2023-05-29T06:33:15;1;1;0
70243;PMS7003;57634;51.136;17.024;2023-05-29T06:36:17;2;0;0
70243;PMS7003;57634;51.136;17.024;2023-05-29T06:39:18;1;1;0
70243;PMS7003;57634;51.136;17.024;2023-05-29T06:42:21;0;0;0
70243;PMS7003;57634;51.136;17.024;2023-05-29T06:45:23;1;0;0
70243;PMS7003;57634;51.136;17.024;2023-05-29T06:48:24;0;0;0
70243;PMS7003;57634;51.136;17.024;2023-05-29T06:51:26;0;0;0
70243;PMS7003;57634;51.136;17.024;2023-05-29T06:54:27;0;0;0
70243;PMS7003;57634;51.136;17.024;2023-05-29T06:57:54;0;0;0
70243;PMS7003;57634;51.136;17.024;2023-05-29T07:00:56;0;0;0
70243;PMS7003;57634;51.136;17.024;2023-05-29T07:03:58;0;0;0
70243;PMS7003;57634;51.136;17.024;2023-05-29T07:06:59;0;0;0
70243;PMS7003;57634;51.136;17.024;2023-05-29T07:10:00;0;0;0
70243;PMS7003;57634;51.136;17.024;2023-05-29T07:13:01;0;0;0
70243;PMS7003;57634;51.136;17.024;2023-05-29T07:16:03;0;0;0
70243;PMS7003;57634;51.136;17.024;2023-05-29T07:19:05;0;0;0
70243;PMS7003;57634;51.136;17.024;2023-05-29T07:22:06;0;0;0
70243;PMS7003;57634;51.136;17.024;2023-05-29T07:25:08;0;0;0
70243;PMS7003;57634;51.136;17.024;2023-05-29T07:28:10;0;0;0
70243;PMS7003;57634;51.136;17.024;2023-05-29T07:31:11;0;0;0
70243;PMS7003;57634;51.136;17.024;2023-05-29T07:34:12;0;0;0
70243;PMS7003;57634;51.136;17.024;2023-05-29T07:37:13;0;0;0
70243;PMS7003;57634;51.136;17.024;2023-05-29T07:40:42;0;0;0
70243;PMS7003;57634;51.136;17.024;2023-05-29T07:43:43;0;0;0
70243;PMS7003;57634;51.136;17.024;2023-05-29T07:46:51;0;0;0
70243;PMS7003;57634;51.136;17.024;2023-05-29T07:49:53;0;0;0
70243;PMS7003;57634;51.136;17.024;2023-05-29T07:52:55;0;0;0
70243;PMS7003;57634;51.136;17.024;2023-05-29T07:55:57;0;0;0
70243;PMS7003;57634;51.136;17.024;2023-05-29T07:58:59;0;0;0
70243;PMS7003;57634;51.136;17.024;2023-05-29T08:02:01;0;0;0
70243;PMS7003;57634;51.136;17.024;2023-05-29T08:05:05;0;0;0
70243;PMS7003;57634;51.136;17.024;2023-05-29T08:08:10;0;0;0
70243;PMS7003;57634;51.136;17.024;2023-05-29T08:11:41;0;0;0
70243;PMS7003;57634;51.136;17.024;2023-05-29T08:14:42;0;0;0
70243;PMS7003;57634;51.136;17.024;2023-05-29T08:17:44;0;0;0
70243;PMS7003;57634;51.136;17.024;2023-05-29T08:20:45;0;0;0
70243;PMS7003;57634;51.136;17.024;2023-05-29T08:23:47;0;0;0
70243;PMS7003;57634;51.136;17.024;2023-05-29T08:26:49;0;0;0
70243;PMS7003;57634;51.136;17.024;2023-05-29T08:29:50;0;0;0
70243;PMS7003;57634;51.136;17.024;2023-05-29T08:32:51;0;0;0
70243;PMS7003;57634;51.136;17.024;2023-05-29T08:35:52;0;0;0
70243;PMS7003;57634;51.136;17.024;2023-05-29T08:38:54;0;0;0
70243;PMS7003;57634;51.136;17.024;2023-05-29T08:41:59;0;0;0
70243;PMS7003;57634;51.136;17.024;2023-05-29T08:45:07;0;0;0
70243;PMS7003;57634;51.136;17.024;2023-05-29T08:50:22;0;0;0
70243;PMS7003;57634;51.136;17.024;2023-05-29T08:53:25;0;0;0
70243;PMS7003;57634;51.136;17.024;2023-05-29T08:56:27;0;0;0
70243;PMS7003;57634;51.136;17.024;2023-05-29T08:59:28;0;0;0
70243;PMS7003;57634;51.136;17.024;2023-05-29T09:02:31;0;0;0
70243;PMS7003;57634;51.136;17.024;2023-05-29T09:05:32;0;0;0
70243;PMS7003;57634;51.136;17.024;2023-05-29T09:08:34;0;0;0
70243;PMS7003;57634;51.136;17.024;2023-05-29T09:11:37;0;0;0
70243;PMS7003;57634;51.136;17.024;2023-05-29T09:14:39;0;0;0
70243;PMS7003;57634;51.136;17.024;2023-05-29T09:17:43;1;0;0
70243;PMS7003;57634;51.136;17.024;2023-05-29T09:20:45;0;0;0
70243;PMS7003;57634;51.136;17.024;2023-05-29T09:24:16;0;0;0
70243;PMS7003;57634;51.136;17.024;2023-05-29T09:27:18;0;0;0
70243;PMS7003;57634;51.136;17.024;2023-05-29T09:33:32;0;0;0
70243;PMS7003;57634;51.136;17.024;2023-05-29T09:36:33;0;0;0
70243;PMS7003;57634;51.136;17.024;2023-05-29T09:39:44;0;0;0
70243;PMS7003;57634;51.136;17.024;2023-05-29T09:42:48;0;0;0
70243;PMS7003;57634;51.136;17.024;2023-05-29T09:45:50;0;0;0
70243;PMS7003;57634;51.136;17.024;2023-05-29T09:48:51;0;0;0
70243;PMS7003;57634;51.136;17.024;2023-05-29T09:52:21;0;0;0
70243;PMS7003;57634;51.136;17.024;2023-05-29T09:55:23;1;1;1
70243;PMS7003;57634;51.136;17.024;2023-05-29T09:58:27;0;0;0
70243;PMS7003;57634;51.136;17.024;2023-05-29T10:01:29;1;1;1
70243;PMS7003;57634;51.136;17.024;2023-05-29T10:04:31;3;3;2
70243;PMS7003;57634;51.136;17.024;2023-05-29T10:07:36;3;3;2
70243;PMS7003;57634;51.136;17.024;2023-05-29T10:10:39;2;1;1
70243;PMS7003;57634;51.136;17.024;2023-05-29T10:13:42;2;2;1
70243;PMS7003;57634;51.136;17.024;2023-05-29T10:16:50;2;1;1
70243;PMS7003;57634;51.136;17.024;2023-05-29T10:19:53;2;1;0
70243;PMS7003;57634;51.136;17.024;2023-05-29T10:23:25;1;1;1
70243;PMS7003;57634;51.136;17.024;2023-05-29T10:26:29;2;1;1
70243;PMS7003;57634;51.136;17.024;2023-05-29T10:29:39;2;2;1
70243;PMS7003;57634;51.136;17.024;2023-05-29T10:36:10;1;0;0
70243;PMS7003;57634;51.136;17.024;2023-05-29T10:39:43;1;1;0
70243;PMS7003;57634;51.136;17.024;2023-05-29T10:42:45;1;1;0
70243;PMS7003;57634;51.136;17.024;2023-05-29T10:45:49;1;1;1
70243;PMS7003;57634;51.136;17.024;2023-05-29T10:48:51;1;1;0
70243;PMS7003;57634;51.136;17.024;2023-05-29T10:51:55;0;0;0
70243;PMS7003;57634;51.136;17.024;2023-05-29T10:55:01;0;0;0
70243;PMS7003;57634;51.136;17.024;2023-05-29T10:58:06;1;1;1
70243;PMS7003;57634;51.136;17.024;2023-05-29T11:01:08;2;1;1
70243;PMS7003;57634;51.136;17.024;2023-05-29T11:07:52;1;1;0
70243;PMS7003;57634;51.136;17.024;2023-05-29T11:10:56;0;0;0
70243;PMS7003;57634;51.136;17.024;2023-05-29T11:14:01;2;2;1
70243;PMS7003;57634;51.136;17.024;2023-05-29T11:17:04;1;0;0
70243;PMS7003;57634;51.136;17.024;2023-05-29T11:20:13;1;1;1
70243;PMS7003;57634;51.136;17.024;2023-05-29T11:23:23;1;1;0
70243;PMS7003;57634;51.136;17.024;2023-05-29T11:26:29;0;0;0
70243;PMS7003;57634;51.136;17.024;2023-05-29T11:29:57;0;0;0
70243;PMS7003;57634;51.136;17.024;2023-05-29T11:32:59;1;1;1
70243;PMS7003;57634;51.136;17.024;2023-05-29T11:36:05;2;2;1
70243;PMS7003;57634;51.136;17.024;2023-05-29T11:39:08;0;0;0
70243;PMS7003;57634;51.136;17.024;2023-05-29T11:42:10;1;1;0
70243;PMS7003;57634;51.136;17.024;2023-05-29T11:45:16;1;1;1
70243;PMS7003;57634;51.136;17.024;2023-05-29T11:48:20;1;1;0
70243;PMS7003;57634;51.136;17.024;2023-05-29T11:51:24;0;0;0
70243;PMS7003;57634;51.136;17.024;2023-05-29T11:54:26;1;1;0
70243;PMS7003;57634;51.136;17.024;2023-05-29T11:57:27;1;1;1
70243;PMS7003;57634;51.136;17.024;2023-05-29T12:00:56;0;0;0
70243;PMS7003;57634;51.136;17.024;2023-05-29T12:03:57;1;1;1
70243;PMS7003;57634;51.136;17.024;2023-05-29T12:06:59;2;1;1
70243;PMS7003;57634;51.136;17.024;2023-05-29T12:13:10;1;1;1
70243;PMS7003;57634;51.136;17.024;2023-05-29T12:16:11;1;1;0
70243;PMS7003;57634;51.136;17.024;2023-05-29T12:19:12;0;0;0
70243;PMS7003;57634;51.136;17.024;2023-05-29T12:22:14;1;1;1
70243;PMS7003;57634;51.136;17.024;2023-05-29T12:25:16;1;1;1
70243;PMS7003;57634;51.136;17.024;2023-05-29T12:28:20;1;1;0
70243;PMS7003;57634;51.136;17.024;2023-05-29T12:31:28;2;2;1
70243;PMS7003;57634;51.136;17.024;2023-05-29T12:34:57;2;2;1
70243;PMS7003;57634;51.136;17.024;2023-05-29T12:38:04;1;1;1
70243;PMS7003;57634;51.136;17.024;2023-05-29T12:41:09;1;1;0
70243;PMS7003;57634;51.136;17.024;2023-05-29T12:44:16;1;1;1
70243;PMS7003;57634;51.136;17.024;2023-05-29T12:47:23;1;1;1
70243;PMS7003;57634;51.136;17.024;2023-05-29T12:50:26;2;2;1
70243;PMS7003;57634;51.136;17.024;2023-05-29T12:53:31;3;2;2
70243;PMS7003;57634;51.136;17.024;2023-05-29T12:56:33;1;1;1
70243;PMS7003;57634;51.136;17.024;2023-05-29T12:59:34;1;1;1
70243;PMS7003;57634;51.136;17.024;2023-05-29T13:03:01;0;0;0
70243;PMS7003;57634;51.136;17.024;2023-05-29T13:06:02;1;1;0
70243;PMS7003;57634;51.136;17.024;2023-05-29T13:09:04;1;1;0
70243;PMS7003;57634;51.136;17.024;2023-05-29T13:12:09;1;1;1
70243;PMS7003;57634;51.136;17.024;2023-05-29T13:15:11;1;1;1
70243;PMS7003;57634;51.136;17.024;2023-05-29T13:18:13;1;1;0
70243;PMS7003;57634;51.136;17.024;2023-05-29T13:21:15;2;1;1
70243;PMS7003;57634;51.136;17.024;2023-05-29T13:24:17;1;1;0
70243;PMS7003;57634;51.136;17.024;2023-05-29T13:27:18;4;3;2
70243;PMS7003;57634;51.136;17.024;2023-05-29T13:30:19;1;1;1
70243;PMS7003;57634;51.136;17.024;2023-05-29T13:33:22;3;3;1
70243;PMS7003;57634;51.136;17.024;2023-05-29T13:36:23;2;2;1
70243;PMS7003;57634;51.136;17.024;2023-05-29T13:39:24;4;3;2
70243;PMS7003;57634;51.136;17.024;2023-05-29T13:42:52;3;1;1
70243;PMS7003;57634;51.136;17.024;2023-05-29T13:45:54;0;0;0
70243;PMS7003;57634;51.136;17.024;2023-05-29T13:48:55;1;1;1
70243;PMS7003;57634;51.136;17.024;2023-05-29T13:51:56;1;1;1
70243;PMS7003;57634;51.136;17.024;2023-05-29T13:54:58;1;1;1
70243;PMS7003;57634;51.136;17.024;2023-05-29T13:58:09;1;1;1
70243;PMS7003;57634;51.136;17.024;2023-05-29T14:01:10;2;2;1
70243;PMS7003;57634;51.136;17.024;2023-05-29T14:04:11;3;2;1
70243;PMS7003;57634;51.136;17.024;2023-05-29T14:07:12;2;1;1
70243;PMS7003;57634;51.136;17.024;2023-05-29T14:10:13;1;1;1
70243;PMS7003;57634;51.136;17.024;2023-05-29T14:13:15;2;2;1
70243;PMS7003;57634;51.136;17.024;2023-05-29T14:16:16;2;1;1
70243;PMS7003;57634;51.136;17.024;2023-05-29T14:19:18;2;1;1
70243;PMS7003;57634;51.136;17.024;2023-05-29T14:22:45;2;2;1
70243;PMS7003;57634;51.136;17.024;2023-05-29T14:25:47;2;2;2
70243;PMS7003;57634;51.136;17.024;2023-05-29T14:28:48;4;2;2
70243;PMS7003;57634;51.136;17.024;2023-05-29T14:31:49;3;1;1
70243;PMS7003;57634;51.136;17.024;2023-05-29T14:34:51;2;2;2
70243;PMS7003;57634;51.136;17.024;2023-05-29T14:37:53;1;1;1
70243;PMS7003;57634;51.136;17.024;2023-05-29T14:40:54;2;2;1
70243;PMS7003;57634;51.136;17.024;2023-05-29T14:43:55;1;1;1
70243;PMS7003;57634;51.136;17.024;2023-05-29T14:47:00;2;1;1
70243;PMS7003;57634;51.136;17.024;2023-05-29T14:50:02;2;2;1
70243;PMS7003;57634;51.136;17.024;2023-05-29T14:53:03;3;2;1
70243;PMS7003;57634;51.136;17.024;2023-05-29T14:56:06;4;4;3
70243;PMS7003;57634;51.136;17.024;2023-05-29T14:59:07;3;3;3
70243;PMS7003;57634;51.136;17.024;2023-05-29T15:02:36;4;3;2
70243;PMS7003;57634;51.136;17.024;2023-05-29T15:05:40;2;2;2
70243;PMS7003;57634;51.136;17.024;2023-05-29T15:08:41;3;3;2
70243;PMS7003;57634;51.136;17.024;2023-05-29T15:11:43;2;2;1
70243;PMS7003;57634;51.136;17.024;2023-05-29T15:14:44;2;2;1
70243;PMS7003;57634;51.136;17.024;2023-05-29T15:17:45;2;2;2
70243;PMS7003;57634;51.136;17.024;2023-05-29T15:20:53;2;2;1
70243;PMS7003;57634;51.136;17.024;2023-05-29T15:23:57;3;3;3
70243;PMS7003;57634;51.136;17.024;2023-05-29T15:26:58;2;2;1
70243;PMS7003;57634;51.136;17.024;2023-05-29T15:33:37;3;2;2
70243;PMS7003;57634;51.136;17.024;2023-05-29T15:36:40;3;3;3
70243;PMS7003;57634;51.136;17.024;2023-05-29T15:39:41;4;3;2
70243;PMS7003;57634;51.136;17.024;2023-05-29T15:42:42;3;3;2
70243;PMS7003;57634;51.136;17.024;2023-05-29T15:45:44;2;2;2
70243;PMS7003;57634;51.136;17.024;2023-05-29T15:48:45;3;3;2
70243;PMS7003;57634;51.136;17.024;2023-05-29T15:51:47;3;3;2
70243;PMS7003;57634;51.136;17.024;2023-05-29T15:54:48;2;2;1
70243;PMS7003;57634;51.136;17.024;2023-05-29T15:57:49;5;4;3
70243;PMS7003;57634;51.136;17.024;2023-05-29T16:00:51;3;3;2
70243;PMS7003;57634;51.136;17.024;2023-05-29T16:03:52;3;3;2
70243;PMS7003;57634;51.136;17.024;2023-05-29T16:06:53;3;3;2
70243;PMS7003;57634;51.136;17.024;2023-05-29T16:09:55;3;2;2
70243;PMS7003;57634;51.136;17.024;2023-05-29T16:12:56;4;4;2
70243;PMS7003;57634;51.136;17.024;2023-05-29T16:16:24;3;3;2
70243;PMS7003;57634;51.136;17.024;2023-05-29T16:19:25;4;4;3
70243;PMS7003;57634;51.136;17.024;2023-05-29T16:22:28;3;3;3
70243;PMS7003;57634;51.136;17.024;2023-05-29T16:25:32;4;3;2
70243;PMS7003;57634;51.136;17.024;2023-05-29T16:28:33;4;3;2
70243;PMS7003;57634;51.136;17.024;2023-05-29T16:31:36;3;3;2
70243;PMS7003;57634;51.136;17.024;2023-05-29T16:34:37;2;1;1
70243;PMS7003;57634;51.136;17.024;2023-05-29T16:37:40;3;3;2
70243;PMS7003;57634;51.136;17.024;2023-05-29T16:40:41;3;3;2
70243;PMS7003;57634;51.136;17.024;2023-05-29T16:43:43;3;3;2
70243;PMS7003;57634;51.136;17.024;2023-05-29T16:46:44;3;3;3
70243;PMS7003;57634;51.136;17.024;2023-05-29T16:49:46;5;4;3
70243;PMS7003;57634;51.136;17.024;2023-05-29T16:52:50;2;2;0
70243;PMS7003;57634;51.136;17.024;2023-05-29T16:56:16;2;2;2
70243;PMS7003;57634;51.136;17.024;2023-05-29T16:59:18;3;3;2
70243;PMS7003;57634;51.136;17.024;2023-05-29T17:02:19;3;3;2
70243;PMS7003;57634;51.136;17.024;2023-05-29T17:05:21;5;4;3
70243;PMS7003;57634;51.136;17.024;2023-05-29T17:08:22;3;3;2
70243;PMS7003;57634;51.136;17.024;2023-05-29T17:11:23;4;4;2
70243;PMS7003;57634;51.136;17.024;2023-05-29T17:14:26;3;3;3
70243;PMS7003;57634;51.136;17.024;2023-05-29T17:17:27;3;3;2
70243;PMS7003;57634;51.136;17.024;2023-05-29T17:20:28;3;3;3
70243;PMS7003;57634;51.136;17.024;2023-05-29T17:23:30;3;3;2
70243;PMS7003;57634;51.136;17.024;2023-05-29T17:26:32;3;3;2
70243;PMS7003;57634;51.136;17.024;2023-05-29T17:29:33;2;2;1
70243;PMS7003;57634;51.136;17.024;2023-05-29T17:32:35;3;3;2
70243;PMS7003;57634;51.136;17.024;2023-05-29T17:35:36;3;3;2
70243;PMS7003;57634;51.136;17.024;2023-05-29T17:39:04;3;3;3
70243;PMS7003;57634;51.136;17.024;2023-05-29T17:42:05;4;4;3
70243;PMS7003;57634;51.136;17.024;2023-05-29T17:45:08;3;3;3
70243;PMS7003;57634;51.136;17.024;2023-05-29T17:48:12;5;4;3
70243;PMS7003;57634;51.136;17.024;2023-05-29T17:51:13;4;4;2
70243;PMS7003;57634;51.136;17.024;2023-05-29T17:54:16;3;3;2
70243;PMS7003;57634;51.136;17.024;2023-05-29T17:57:18;3;3;2
70243;PMS7003;57634;51.136;17.024;2023-05-29T18:00:19;3;3;2
70243;PMS7003;57634;51.136;17.024;2023-05-29T18:03:21;2;2;2
70243;PMS7003;57634;51.136;17.024;2023-05-29T18:06:23;4;4;3
70243;PMS7003;57634;51.136;17.024;2023-05-29T18:09:24;3;3;2
70243;PMS7003;57634;51.136;17.024;2023-05-29T18:12:26;4;3;2
70243;PMS7003;57634;51.136;17.024;2023-05-29T18:15:27;4;3;2
70243;PMS7003;57634;51.136;17.024;2023-05-29T18:18:56;6;4;2
70243;PMS7003;57634;51.136;17.024;2023-05-29T18:21:57;3;3;2
70243;PMS7003;57634;51.136;17.024;2023-05-29T18:24:59;4;3;2
70243;PMS7003;57634;51.136;17.024;2023-05-29T18:28:01;3;3;2
70243;PMS7003;57634;51.136;17.024;2023-05-29T18:31:05;2;2;2
70243;PMS7003;57634;51.136;17.024;2023-05-29T18:34:07;4;3;3
70243;PMS7003;57634;51.136;17.024;2023-05-29T18:37:08;5;4;3
70243;PMS7003;57634;51.136;17.024;2023-05-29T18:40:09;5;5;4
70243;PMS7003;57634;51.136;17.024;2023-05-29T18:43:11;4;4;3
70243;PMS7003;57634;51.136;17.024;2023-05-29T18:46:13;4;4;3
70243;PMS7003;57634;51.136;17.024;2023-05-29T18:49:15;4;4;3
70243;PMS7003;57634;51.136;17.024;2023-05-29T18:52:16;6;6;4
70243;PMS7003;57634;51.136;17.024;2023-05-29T18:55:17;4;4;3
70243;PMS7003;57634;51.136;17.024;2023-05-29T18:58:47;6;5;3
70243;PMS7003;57634;51.136;17.024;2023-05-29T19:01:48;6;5;4
70243;PMS7003;57634;51.136;17.024;2023-05-29T19:04:50;4;4;3
70243;PMS7003;57634;51.136;17.024;2023-05-29T19:07:52;4;3;2
70243;PMS7003;57634;51.136;17.024;2023-05-29T19:10:55;3;3;3
70243;PMS7003;57634;51.136;17.024;2023-05-29T19:13:56;7;4;2
70243;PMS7003;57634;51.136;17.024;2023-05-29T19:17:04;4;3;3
70243;PMS7003;57634;51.136;17.024;2023-05-29T19:20:10;6;5;3
70243;PMS7003;57634;51.136;17.024;2023-05-29T19:23:11;3;3;2
70243;PMS7003;57634;51.136;17.024;2023-05-29T19:26:12;3;3;3
70243;PMS7003;57634;51.136;17.024;2023-05-29T19:29:14;5;5;4
70243;PMS7003;57634;51.136;17.024;2023-05-29T19:32:44;4;4;4
70243;PMS7003;57634;51.136;17.024;2023-05-29T19:35:45;6;4;3
70243;PMS7003;57634;51.136;17.024;2023-05-29T19:38:46;5;5;3
70243;PMS7003;57634;51.136;17.024;2023-05-29T19:41:47;2;2;1
70243;PMS7003;57634;51.136;17.024;2023-05-29T19:44:48;5;5;3
70243;PMS7003;57634;51.136;17.024;2023-05-29T19:47:49;4;4;3
70243;PMS7003;57634;51.136;17.024;2023-05-29T19:50:51;3;3;2
70243;PMS7003;57634;51.136;17.024;2023-05-29T19:53:52;5;4;3
70243;PMS7003;57634;51.136;17.024;2023-05-29T19:56:53;4;4;3
70243;PMS7003;57634;51.136;17.024;2023-05-29T19:59:55;5;5;3
70243;PMS7003;57634;51.136;17.024;2023-05-29T20:02:59;5;5;4
70243;PMS7003;57634;51.136;17.024;2023-05-29T20:06:00;5;4;3
70243;PMS7003;57634;51.136;17.024;2023-05-29T20:09:05;4;4;3
70243;PMS7003;57634;51.136;17.024;2023-05-29T20:12:06;5;5;4
70243;PMS7003;57634;51.136;17.024;2023-05-29T20:15:33;5;4;3
70243;PMS7003;57634;51.136;17.024;2023-05-29T20:18:34;4;4;3
70243;PMS7003;57634;51.136;17.024;2023-05-29T20:21:39;4;4;3
70243;PMS7003;57634;51.136;17.024;2023-05-29T20:24:40;4;4;2
70243;PMS7003;57634;51.136;17.024;2023-05-29T20:27:42;4;4;3
70243;PMS7003;57634;51.136;17.024;2023-05-29T20:30:45;5;4;3
70243;PMS7003;57634;51.136;17.024;2023-05-29T20:33:47;1;1;0
70243;PMS7003;57634;51.136;17.024;2023-05-29T20:36:48;4;4;3
70243;PMS7003;57634;51.136;17.024;2023-05-29T20:39:50;3;3;2
70243;PMS7003;57634;51.136;17.024;2023-05-29T20:42:52;4;3;3
70243;PMS7003;57634;51.136;17.024;2023-05-29T20:45:55;6;5;4
70243;PMS7003;57634;51.136;17.024;2023-05-29T20:48:57;4;4;3
70243;PMS7003;57634;51.136;17.024;2023-05-29T20:51:59;3;3;2